createdAt,value
2022-12-01T00:03:23.687Z,6.84
2022-12-01T00:08:23.541Z,6.80
2022-12-01T00:13:23.391Z,6.74
2022-12-01T00:18:23.379Z,6.58
2022-12-01T00:23:23.690Z,6.73
2022-12-01T00:28:23.495Z,6.84
2022-12-01T00:33:23.483Z,6.92
2022-12-01T00:38:25.192Z,6.88
2022-12-01T00:43:25.257Z,6.71
2022-12-01T00:48:23.049Z,6.89
2022-12-01T00:53:23.005Z,6.70
2022-12-01T00:58:22.915Z,6.67
2022-12-01T01:03:22.902Z,6.67
2022-12-01T01:08:22.864Z,6.70
2022-12-01T01:13:22.790Z,6.76
2022-12-01T01:18:22.728Z,6.62
2022-12-01T01:23:22.676Z,6.73
2022-12-01T01:28:22.581Z,6.62
2022-12-01T01:33:22.541Z,6.73
2022-12-01T01:38:22.480Z,6.69
2022-12-01T01:43:22.511Z,6.64
2022-12-01T01:48:22.394Z,6.67
2022-12-01T01:53:22.362Z,6.55
2022-12-01T01:58:22.375Z,6.64
2022-12-01T02:03:22.257Z,6.67
2022-12-01T02:08:22.202Z,6.85
2022-12-01T02:13:22.103Z,6.92
2022-12-01T02:18:22.101Z,6.88
2022-12-01T02:23:21.991Z,6.77
2022-12-01T02:28:21.961Z,6.91
2022-12-01T02:33:21.918Z,6.73
2022-12-01T02:38:21.876Z,6.88
2022-12-01T02:43:21.781Z,6.95
2022-12-01T02:48:21.758Z,6.88
2022-12-01T02:53:22.872Z,6.66
2022-12-01T02:58:21.703Z,6.62
2022-12-01T03:03:21.864Z,6.81
2022-12-01T03:08:21.641Z,6.85
2022-12-01T03:13:21.514Z,6.80
2022-12-01T03:18:21.439Z,6.89
2022-12-01T03:23:21.397Z,6.80
2022-12-01T03:28:22.436Z,6.79
2022-12-01T03:33:21.408Z,6.84
2022-12-01T03:38:21.214Z,6.95
2022-12-01T03:43:21.198Z,6.77
2022-12-01T03:48:21.118Z,6.80
2022-12-01T03:53:21.141Z,6.87
2022-12-01T03:58:21.044Z,6.73
2022-12-01T04:03:20.960Z,6.70
2022-12-01T04:08:20.920Z,6.67
2022-12-01T04:13:20.870Z,6.73
2022-12-01T04:18:21.037Z,6.70
2022-12-01T04:23:21.884Z,6.55
2022-12-01T04:28:20.677Z,6.46
2022-12-01T04:33:20.682Z,6.73
2022-12-01T04:38:20.626Z,6.80
2022-12-01T04:43:20.491Z,6.79
2022-12-01T04:48:20.467Z,6.69
2022-12-01T04:53:20.385Z,6.51
2022-12-01T04:58:20.409Z,6.44
2022-12-01T05:03:20.482Z,6.52
2022-12-01T05:08:20.405Z,6.59
2022-12-01T05:13:20.430Z,6.56
2022-12-01T05:18:20.207Z,6.58
2022-12-01T05:23:20.231Z,6.64
2022-12-01T05:28:20.046Z,6.67
2022-12-01T05:33:19.994Z,6.71
2022-12-01T05:38:19.921Z,6.81
2022-12-01T05:43:23.886Z,6.89
2022-12-01T05:48:20.839Z,6.69
2022-12-01T05:53:19.747Z,6.55
2022-12-01T05:58:19.678Z,6.49
2022-12-01T06:03:19.668Z,6.43
2022-12-01T06:08:19.683Z,6.36
2022-12-01T06:13:19.562Z,6.28
2022-12-01T06:18:19.634Z,6.56
2022-12-01T06:23:19.428Z,6.38
2022-12-01T06:28:19.400Z,6.59
2022-12-01T06:33:22.864Z,6.73
2022-12-01T06:38:19.415Z,6.38
2022-12-01T06:43:19.255Z,6.46
2022-12-01T06:48:19.142Z,6.40
2022-12-01T06:53:19.228Z,6.43
2022-12-01T06:58:19.095Z,6.58
2022-12-01T07:03:19.013Z,6.59
2022-12-01T07:08:18.974Z,6.52
2022-12-01T07:13:20.007Z,6.49
2022-12-01T07:18:18.799Z,6.52
2022-12-01T07:23:18.934Z,6.56
2022-12-01T07:28:18.725Z,6.61
2022-12-01T07:33:18.761Z,6.56
2022-12-01T07:38:22.130Z,6.46
2022-12-01T07:43:18.606Z,6.38
2022-12-01T07:48:18.690Z,6.59
2022-12-01T07:53:18.613Z,6.40
2022-12-01T07:58:18.506Z,6.46
2022-12-01T08:03:18.366Z,6.33
2022-12-01T08:08:18.512Z,6.40
2022-12-01T08:13:18.225Z,6.52
2022-12-01T08:18:18.364Z,6.36
2022-12-01T08:23:18.269Z,6.49
2022-12-01T08:28:18.056Z,6.48
2022-12-01T08:33:17.998Z,6.70
2022-12-01T08:38:17.954Z,6.73
2022-12-01T08:43:41.463Z,6.36
2022-12-01T08:48:18.968Z,6.61
2022-12-01T08:53:17.799Z,6.52
2022-12-01T08:58:17.785Z,6.48
2022-12-01T09:03:17.908Z,6.62
2022-12-01T09:08:17.737Z,6.58
2022-12-01T09:13:17.721Z,6.48
2022-12-01T09:18:17.512Z,6.40
2022-12-01T09:23:17.647Z,6.54
2022-12-01T09:28:17.480Z,6.52
2022-12-01T09:33:17.382Z,6.74
2022-12-01T09:38:17.335Z,6.49
2022-12-01T09:43:17.284Z,6.31
2022-12-01T09:48:17.284Z,6.54
2022-12-01T09:53:17.252Z,6.41
2022-12-01T09:58:17.206Z,6.17
2022-12-01T10:03:17.108Z,6.51
2022-12-01T10:08:17.106Z,6.38
2022-12-01T10:13:16.929Z,6.49
2022-12-01T10:18:16.868Z,6.38
2022-12-01T10:23:16.874Z,6.30
2022-12-01T10:28:16.925Z,6.44
2022-12-01T10:33:16.863Z,6.52
2022-12-01T10:38:16.691Z,6.49
2022-12-01T10:43:16.745Z,6.64
2022-12-01T10:48:16.673Z,6.84
2022-12-01T10:53:16.550Z,6.81
2022-12-01T10:58:16.459Z,6.80
2022-12-01T11:03:21.312Z,7.03
2022-12-01T11:08:17.352Z,7.06
2022-12-01T11:13:16.214Z,6.95
2022-12-01T11:18:18.288Z,6.71
2022-12-01T11:23:16.162Z,6.98
2022-12-01T11:28:16.193Z,6.89
2022-12-01T11:33:16.132Z,7.16
2022-12-01T11:38:31.295Z,6.98
2022-12-01T11:43:16.936Z,7.23
2022-12-01T11:48:15.872Z,7.07
2022-12-01T11:53:15.847Z,7.06
2022-12-01T11:58:15.982Z,7.23
2022-12-01T12:03:15.920Z,7.35
2022-12-01T12:08:15.839Z,7.07
2022-12-01T12:13:16.764Z,6.98
2022-12-01T12:18:15.703Z,7.02
2022-12-01T12:23:15.532Z,7.43
2022-12-01T12:28:15.516Z,7.23
2022-12-01T12:33:15.362Z,7.13
2022-12-01T12:38:15.358Z,7.25
2022-12-01T12:43:15.246Z,7.35
2022-12-01T12:48:15.196Z,7.23
2022-12-01T12:53:15.168Z,7.31
2022-12-01T12:58:15.231Z,7.03
2022-12-01T13:03:15.165Z,7.42
2022-12-01T13:08:15.076Z,7.35
2022-12-01T13:13:15.042Z,7.35
2022-12-01T13:18:14.870Z,7.61
2022-12-01T13:23:15.904Z,7.58
2022-12-01T13:28:14.741Z,7.53
2022-12-01T13:33:14.697Z,7.27
2022-12-01T13:38:14.682Z,7.43
2022-12-01T13:43:14.608Z,7.50
2022-12-01T13:48:14.572Z,7.45
2022-12-01T13:53:14.527Z,7.23
2022-12-01T13:58:14.408Z,7.17
2022-12-01T14:03:14.568Z,7.25
2022-12-01T14:08:18.336Z,7.23
2022-12-01T14:13:15.346Z,7.09
2022-12-01T14:18:14.187Z,7.21
2022-12-01T14:23:14.155Z,7.09
2022-12-01T14:28:14.084Z,6.89
2022-12-01T14:33:14.047Z,6.94
2022-12-01T14:38:13.983Z,6.81
2022-12-01T14:43:13.934Z,6.80
2022-12-01T14:48:13.953Z,6.84
2022-12-01T14:53:13.803Z,6.95
2022-12-01T14:58:13.773Z,6.89
2022-12-01T15:03:13.761Z,6.91
2022-12-01T15:08:40.428Z,6.69
2022-12-01T15:13:14.704Z,6.67
2022-12-01T15:18:13.676Z,6.64
2022-12-01T15:23:13.523Z,6.66
2022-12-01T15:28:13.475Z,6.61
2022-12-01T15:33:13.406Z,6.55
2022-12-01T15:38:13.343Z,6.56
2022-12-01T15:43:13.442Z,6.43
2022-12-01T15:48:13.243Z,6.43
2022-12-01T15:53:13.321Z,6.41
2022-12-01T15:58:14.262Z,6.40
2022-12-01T16:03:13.183Z,6.59
2022-12-01T16:08:14.012Z,6.46
2022-12-01T16:13:12.983Z,6.43
2022-12-01T16:18:12.871Z,6.56
2022-12-01T16:23:12.820Z,6.46
2022-12-01T16:28:12.794Z,6.40
2022-12-01T16:33:12.834Z,6.44
2022-12-01T16:38:12.783Z,6.44
2022-12-01T16:43:12.755Z,6.31
2022-12-01T16:48:12.763Z,6.22
2022-12-01T16:53:12.505Z,6.25
2022-12-01T16:58:12.455Z,6.09
2022-12-01T17:03:12.395Z,6.17
2022-12-01T17:08:12.454Z,6.19
2022-12-01T17:13:12.281Z,6.00
2022-12-01T17:18:12.363Z,6.06
2022-12-01T17:23:12.172Z,6.08
2022-12-01T17:28:12.149Z,6.21
2022-12-01T17:33:12.197Z,6.25
2022-12-01T17:38:12.120Z,6.33
2022-12-01T17:43:11.966Z,6.12
2022-12-01T17:48:20.798Z,6.40
2022-12-01T17:53:11.889Z,6.17
2022-12-01T17:58:11.789Z,6.00
2022-12-01T18:03:11.788Z,5.89
2022-12-01T18:08:11.798Z,5.81
2022-12-01T18:13:11.638Z,5.67
2022-12-01T18:18:11.610Z,5.78
2022-12-01T18:23:11.553Z,5.54
2022-12-01T18:28:11.499Z,5.65
2022-12-01T18:33:11.480Z,5.49
2022-12-01T18:38:11.413Z,5.49
2022-12-01T18:43:11.290Z,5.48
2022-12-01T18:48:11.319Z,5.36
2022-12-01T18:53:11.185Z,5.33
2022-12-01T18:58:11.182Z,5.27
2022-12-01T19:03:11.210Z,5.38
2022-12-01T19:08:11.197Z,5.21
2022-12-01T19:13:11.010Z,5.24
2022-12-01T19:18:10.929Z,5.35
2022-12-01T19:23:10.951Z,5.35
2022-12-01T19:28:10.833Z,5.53
2022-12-01T19:33:10.788Z,5.46
2022-12-01T19:38:10.708Z,5.45
2022-12-01T19:43:10.764Z,5.38
2022-12-01T19:48:10.678Z,5.21
2022-12-01T19:53:10.637Z,5.15
2022-12-01T19:58:10.539Z,5.09
2022-12-01T20:03:10.497Z,5.06
2022-12-01T20:08:10.467Z,5.00
2022-12-01T20:13:10.322Z,4.92
2022-12-01T20:18:10.280Z,4.82
2022-12-01T20:23:10.341Z,5.03
2022-12-01T20:28:10.170Z,5.04
2022-12-01T20:33:10.180Z,4.96
2022-12-01T20:38:10.114Z,5.03
2022-12-01T20:43:10.003Z,4.96
2022-12-01T20:48:09.978Z,5.00
2022-12-01T20:53:09.925Z,4.86
2022-12-01T20:58:10.898Z,4.82
2022-12-01T21:03:09.814Z,5.27
2022-12-01T21:08:09.865Z,5.04
2022-12-01T21:13:09.749Z,5.07
2022-12-01T21:18:09.623Z,4.97
2022-12-01T21:23:09.582Z,4.85
2022-12-01T21:28:09.501Z,4.70
2022-12-01T21:33:09.452Z,4.94
2022-12-01T21:38:10.401Z,4.82
2022-12-01T21:43:09.378Z,4.82
2022-12-01T21:48:09.280Z,4.86
2022-12-01T21:53:09.298Z,4.55
2022-12-01T21:58:09.156Z,4.70
2022-12-01T22:03:09.131Z,4.82
2022-12-01T22:08:09.184Z,4.66
2022-12-01T22:13:09.076Z,4.45
2022-12-01T22:18:10.995Z,4.59
2022-12-01T22:23:08.918Z,4.44
2022-12-01T22:28:08.852Z,4.40
2022-12-01T22:33:08.800Z,4.48
2022-12-01T22:38:08.745Z,4.36
2022-12-01T22:43:13.810Z,4.26
2022-12-01T22:48:09.695Z,4.18
2022-12-01T22:53:08.541Z,4.54
2022-12-01T22:58:08.627Z,4.45
2022-12-01T23:03:08.554Z,4.20
2022-12-01T23:08:08.586Z,4.14
2022-12-01T23:13:08.360Z,4.24
2022-12-01T23:18:08.311Z,4.24
2022-12-01T23:23:08.257Z,4.26
2022-12-01T23:28:08.204Z,4.18
2022-12-01T23:33:08.180Z,4.14
2022-12-01T23:38:08.173Z,4.15
2022-12-01T23:43:08.087Z,3.88
2022-12-01T23:48:11.084Z,4.04
2022-12-01T23:53:17.948Z,4.11
2022-12-01T23:58:08.094Z,4.15
